sensor_id;sensor_type;location;lat;lon;timestamp;P1;durP1;ratioP1;P2;durP2;ratioP2
11171;SDS011;5642;50.830;12.082;2023-09-07T00:00:05;1.60;;;1.50;;
11171;SDS011;5642;50.830;12.082;2023-09-07T00:02:41;2.45;;;1.60;;
11171;SDS011;5642;50.830;12.082;2023-09-07T00:05:16;1.60;;;1.50;;
11171;SDS011;5642;50.830;12.082;2023-09-07T00:07:42;2.33;;;1.50;;
11171;SDS011;5642;50.830;12.082;2023-09-07T00:10:08;2.97;;;1.52;;
11171;SDS011;5642;50.830;12.082;2023-09-07T00:12:40;1.45;;;1.35;;
11171;SDS011;5642;50.830;12.082;2023-09-07T00:15:16;2.10;;;1.60;;
11171;SDS011;5642;50.830;12.082;2023-09-07T00:17:52;1.67;;;1.58;;
11171;SDS011;5642;50.830;12.082;2023-09-07T00:20:25;2.15;;;1.58;;
11171;SDS011;5642;50.830;12.082;2023-09-07T00:23:09;1.70;;;1.60;;
11171;SDS011;5642;50.830;12.082;2023-09-07T00:25:39;2.15;;;1.60;;
11171;SDS011;5642;50.830;12.082;2023-09-07T00:28:28;1.60;;;1.50;;
11171;SDS011;5642;50.830;12.082;2023-09-07T00:31:10;1.60;;;1.50;;
11171;SDS011;5642;50.830;12.082;2023-09-07T00:33:44;1.90;;;1.80;;
11171;SDS011;5642;50.830;12.082;2023-09-07T00:36:32;1.60;;;1.50;;
11171;SDS011;5642;50.830;12.082;2023-09-07T00:39:06;1.52;;;1.42;;
11171;SDS011;5642;50.830;12.082;2023-09-07T00:41:34;1.98;;;1.60;;
11171;SDS011;5642;50.830;12.082;2023-09-07T00:44:04;1.60;;;1.50;;
11171;SDS011;5642;50.830;12.082;2023-09-07T00:46:46;1.60;;;1.50;;
11171;SDS011;5642;50.830;12.082;2023-09-07T00:49:12;1.60;;;1.50;;
11171;SDS011;5642;50.830;12.082;2023-09-07T00:51:54;1.65;;;1.40;;
11171;SDS011;5642;50.830;12.082;2023-09-07T00:54:47;1.92;;;1.40;;
11171;SDS011;5642;50.830;12.082;2023-09-07T00:57:15;1.45;;;1.30;;
11171;SDS011;5642;50.830;12.082;2023-09-07T00:59:45;1.80;;;1.70;;
11171;SDS011;5642;50.830;12.082;2023-09-07T01:02:21;1.58;;;1.48;;
11171;SDS011;5642;50.830;12.082;2023-09-07T01:04:52;1.50;;;1.40;;
11171;SDS011;5642;50.830;12.082;2023-09-07T01:07:31;1.70;;;1.60;;
11171;SDS011;5642;50.830;12.082;2023-09-07T01:10:19;1.70;;;1.60;;
11171;SDS011;5642;50.830;12.082;2023-09-07T01:12:48;1.60;;;1.50;;
11171;SDS011;5642;50.830;12.082;2023-09-07T01:15:14;1.45;;;1.35;;
11171;SDS011;5642;50.830;12.082;2023-09-07T01:17:46;1.80;;;1.70;;
11171;SDS011;5642;50.830;12.082;2023-09-07T01:20:14;1.60;;;1.50;;
11171;SDS011;5642;50.830;12.082;2023-09-07T01:22:42;1.70;;;1.60;;
11171;SDS011;5642;50.830;12.082;2023-09-07T01:25:13;2.17;;;1.80;;
11171;SDS011;5642;50.830;12.082;2023-09-07T01:27:57;1.60;;;1.50;;
11171;SDS011;5642;50.830;12.082;2023-09-07T01:30:25;1.73;;;1.63;;
11171;SDS011;5642;50.830;12.082;2023-09-07T01:32:53;1.58;;;1.48;;
11171;SDS011;5642;50.830;12.082;2023-09-07T01:35:37;1.65;;;1.55;;
11171;SDS011;5642;50.830;12.082;2023-09-07T01:38:05;1.70;;;1.60;;
11171;SDS011;5642;50.830;12.082;2023-09-07T01:40:31;1.60;;;1.50;;
11171;SDS011;5642;50.830;12.082;2023-09-07T01:43:02;2.58;;;1.70;;
11171;SDS011;5642;50.830;12.082;2023-09-07T01:45:34;1.40;;;1.30;;
11171;SDS011;5642;50.830;12.082;2023-09-07T01:48:00;2.10;;;1.90;;
11171;SDS011;5642;50.830;12.082;2023-09-07T01:50:30;1.70;;;1.60;;
11171;SDS011;5642;50.830;12.082;2023-09-07T01:53:08;1.73;;;1.63;;
11171;SDS011;5642;50.830;12.082;2023-09-07T01:55:49;1.67;;;1.58;;
11171;SDS011;5642;50.830;12.082;2023-09-07T01:58:16;2.42;;;1.42;;
11171;SDS011;5642;50.830;12.082;2023-09-07T02:00:48;1.23;;;1.23;;
11171;SDS011;5642;50.830;12.082;2023-09-07T02:03:13;1.85;;;1.70;;
11171;SDS011;5642;50.830;12.082;2023-09-07T02:05:46;1.60;;;1.50;;
11171;SDS011;5642;50.830;12.082;2023-09-07T02:08:20;1.50;;;1.40;;
11171;SDS011;5642;50.830;12.082;2023-09-07T02:10:51;1.60;;;1.50;;
11171;SDS011;5642;50.830;12.082;2023-09-07T02:13:17;1.73;;;1.63;;
11171;SDS011;5642;50.830;12.082;2023-09-07T02:15:49;1.65;;;1.55;;
11171;SDS011;5642;50.830;12.082;2023-09-07T02:18:19;1.60;;;1.50;;
11171;SDS011;5642;50.830;12.082;2023-09-07T02:21:03;1.60;;;1.50;;
11171;SDS011;5642;50.830;12.082;2023-09-07T02:23:39;1.70;;;1.60;;
11171;SDS011;5642;50.830;12.082;2023-09-07T02:26:12;1.65;;;1.55;;
11171;SDS011;5642;50.830;12.082;2023-09-07T02:28:56;1.50;;;1.40;;
11171;SDS011;5642;50.830;12.082;2023-09-07T02:31:25;1.60;;;1.50;;
11171;SDS011;5642;50.830;12.082;2023-09-07T02:33:57;1.60;;;1.50;;
11171;SDS011;5642;50.830;12.082;2023-09-07T02:36:33;2.00;;;1.80;;
11171;SDS011;5642;50.830;12.082;2023-09-07T02:39:08;1.75;;;1.65;;
11171;SDS011;5642;50.830;12.082;2023-09-07T02:41:34;1.92;;;1.70;;
11171;SDS011;5642;50.830;12.082;2023-09-07T02:44:00;2.50;;;2.00;;
11171;SDS011;5642;50.830;12.082;2023-09-07T02:46:26;1.80;;;1.60;;
11171;SDS011;5642;50.830;12.082;2023-09-07T02:48:57;1.60;;;1.50;;
11171;SDS011;5642;50.830;12.082;2023-09-07T02:51:29;2.15;;;1.63;;
11171;SDS011;5642;50.830;12.082;2023-09-07T02:53:55;1.98;;;1.80;;
11171;SDS011;5642;50.830;12.082;2023-09-07T02:56:26;1.77;;;1.65;;
11171;SDS011;5642;50.830;12.082;2023-09-07T02:58:57;1.92;;;1.73;;
11171;SDS011;5642;50.830;12.082;2023-09-07T03:01:41;1.70;;;1.60;;
11171;SDS011;5642;50.830;12.082;2023-09-07T03:04:07;1.48;;;1.38;;
11171;SDS011;5642;50.830;12.082;2023-09-07T03:06:39;1.60;;;1.50;;
11171;SDS011;5642;50.830;12.082;2023-09-07T03:09:18;1.70;;;1.60;;
11171;SDS011;5642;50.830;12.082;2023-09-07T03:11:45;1.70;;;1.60;;
11171;SDS011;5642;50.830;12.082;2023-09-07T03:14:11;2.10;;;1.60;;
11171;SDS011;5642;50.830;12.082;2023-09-07T03:16:42;1.70;;;1.60;;
11171;SDS011;5642;50.830;12.082;2023-09-07T03:19:08;1.70;;;1.60;;
11171;SDS011;5642;50.830;12.082;2023-09-07T03:21:43;1.60;;;1.50;;
11171;SDS011;5642;50.830;12.082;2023-09-07T03:24:31;1.90;;;1.80;;
11171;SDS011;5642;50.830;12.082;2023-09-07T03:27:02;1.80;;;1.70;;
11171;SDS011;5642;50.830;12.082;2023-09-07T03:29:29;2.28;;;1.80;;
11171;SDS011;5642;50.830;12.082;2023-09-07T03:32:18;1.70;;;1.60;;
11171;SDS011;5642;50.830;12.082;2023-09-07T03:34:45;1.88;;;1.77;;
11171;SDS011;5642;50.830;12.082;2023-09-07T03:37:11;1.88;;;1.77;;
11171;SDS011;5642;50.830;12.082;2023-09-07T03:39:58;1.85;;;1.75;;
11171;SDS011;5642;50.830;12.082;2023-09-07T03:42:24;2.08;;;1.80;;
11171;SDS011;5642;50.830;12.082;2023-09-07T03:44:57;2.35;;;2.10;;
11171;SDS011;5642;50.830;12.082;2023-09-07T03:47:35;1.85;;;1.75;;
11171;SDS011;5642;50.830;12.082;2023-09-07T03:50:03;1.98;;;1.88;;
11171;SDS011;5642;50.830;12.082;2023-09-07T03:52:34;1.83;;;1.73;;
11171;SDS011;5642;50.830;12.082;2023-09-07T03:55:07;1.80;;;1.70;;
11171;SDS011;5642;50.830;12.082;2023-09-07T03:57:33;2.03;;;1.88;;
11171;SDS011;5642;50.830;12.082;2023-09-07T03:59:59;1.90;;;1.80;;
11171;SDS011;5642;50.830;12.082;2023-09-07T04:02:25;2.40;;;2.00;;
11171;SDS011;5642;50.830;12.082;2023-09-07T04:04:56;1.90;;;1.80;;
11171;SDS011;5642;50.830;12.082;2023-09-07T04:07:22;2.15;;;1.95;;
11171;SDS011;5642;50.830;12.082;2023-09-07T04:09:49;2.20;;;2.00;;
11171;SDS011;5642;50.830;12.082;2023-09-07T04:12:20;2.17;;;2.08;;
11171;SDS011;5642;50.830;12.082;2023-09-07T04:15:02;1.70;;;1.60;;
11171;SDS011;5642;50.830;12.082;2023-09-07T04:17:28;2.20;;;2.00;;
11171;SDS011;5642;50.830;12.082;2023-09-07T04:20:01;1.90;;;1.80;;
11171;SDS011;5642;50.830;12.082;2023-09-07T04:22:33;2.00;;;1.90;;
11171;SDS011;5642;50.830;12.082;2023-09-07T04:24:59;1.70;;;1.60;;
11171;SDS011;5642;50.830;12.082;2023-09-07T04:27:25;1.80;;;1.70;;
11171;SDS011;5642;50.830;12.082;2023-09-07T04:30:06;1.70;;;1.60;;
11171;SDS011;5642;50.830;12.082;2023-09-07T04:32:48;2.90;;;1.90;;
11171;SDS011;5642;50.830;12.082;2023-09-07T04:35:14;1.98;;;1.70;;
11171;SDS011;5642;50.830;12.082;2023-09-07T04:37:43;2.45;;;2.03;;
11171;SDS011;5642;50.830;12.082;2023-09-07T04:40:15;2.30;;;1.80;;
11171;SDS011;5642;50.830;12.082;2023-09-07T04:42:47;1.90;;;1.80;;
11171;SDS011;5642;50.830;12.082;2023-09-07T04:45:44;1.65;;;1.55;;
11171;SDS011;5642;50.830;12.082;2023-09-07T04:48:11;1.65;;;1.55;;
11171;SDS011;5642;50.830;12.082;2023-09-07T04:50:37;1.80;;;1.70;;
11171;SDS011;5642;50.830;12.082;2023-09-07T04:53:09;1.80;;;1.70;;
11171;SDS011;5642;50.830;12.082;2023-09-07T04:55:39;1.75;;;1.65;;
11171;SDS011;5642;50.830;12.082;2023-09-07T04:58:05;1.80;;;1.70;;
11171;SDS011;5642;50.830;12.082;2023-09-07T05:00:38;2.50;;;1.75;;
11171;SDS011;5642;50.830;12.082;2023-09-07T05:03:10;2.13;;;1.90;;
11171;SDS011;5642;50.830;12.082;2023-09-07T05:05:36;2.53;;;1.80;;
11171;SDS011;5642;50.830;12.082;2023-09-07T05:08:08;2.10;;;1.98;;
11171;SDS011;5642;50.830;12.082;2023-09-07T05:10:34;1.88;;;1.77;;
11171;SDS011;5642;50.830;12.082;2023-09-07T05:13:01;2.30;;;2.10;;
11171;SDS011;5642;50.830;12.082;2023-09-07T05:15:53;2.10;;;1.90;;
11171;SDS011;5642;50.830;12.082;2023-09-07T05:18:21;2.15;;;1.98;;
11171;SDS011;5642;50.830;12.082;2023-09-07T05:20:48;2.35;;;2.13;;
11171;SDS011;5642;50.830;12.082;2023-09-07T05:23:15;2.30;;;2.10;;
11171;SDS011;5642;50.830;12.082;2023-09-07T05:25:43;2.92;;;2.00;;
11171;SDS011;5642;50.830;12.082;2023-09-07T05:28:15;2.40;;;2.20;;
11171;SDS011;5642;50.830;12.082;2023-09-07T05:30:41;2.33;;;2.13;;
11171;SDS011;5642;50.830;12.082;2023-09-07T05:33:11;2.28;;;2.05;;
11171;SDS011;5642;50.830;12.082;2023-09-07T05:35:39;2.20;;;2.00;;
11171;SDS011;5642;50.830;12.082;2023-09-07T05:38:05;2.00;;;1.80;;
11171;SDS011;5642;50.830;12.082;2023-09-07T05:40:39;2.30;;;2.10;;
11171;SDS011;5642;50.830;12.082;2023-09-07T05:43:06;2.20;;;2.00;;
11171;SDS011;5642;50.830;12.082;2023-09-07T05:45:34;2.22;;;1.80;;
11171;SDS011;5642;50.830;12.082;2023-09-07T05:48:04;2.30;;;1.55;;
11171;SDS011;5642;50.830;12.082;2023-09-07T05:50:33;1.80;;;1.70;;
11171;SDS011;5642;50.830;12.082;2023-09-07T05:53:10;2.00;;;1.90;;
11171;SDS011;5642;50.830;12.082;2023-09-07T05:55:36;1.95;;;1.85;;
11171;SDS011;5642;50.830;12.082;2023-09-07T05:58:07;2.35;;;2.00;;
11171;SDS011;5642;50.830;12.082;2023-09-07T06:00:34;3.40;;;2.10;;
11171;SDS011;5642;50.830;12.082;2023-09-07T06:03:03;3.28;;;2.13;;
11171;SDS011;5642;50.830;12.082;2023-09-07T06:05:29;2.20;;;2.00;;
11171;SDS011;5642;50.830;12.082;2023-09-07T06:07:56;5.13;;;2.17;;
11171;SDS011;5642;50.830;12.082;2023-09-07T06:10:23;2.33;;;2.13;;
11171;SDS011;5642;50.830;12.082;2023-09-07T06:12:50;2.80;;;2.40;;
11171;SDS011;5642;50.830;12.082;2023-09-07T06:15:16;2.67;;;2.28;;
11171;SDS011;5642;50.830;12.082;2023-09-07T06:17:45;2.50;;;2.30;;
11171;SDS011;5642;50.830;12.082;2023-09-07T06:20:12;2.33;;;2.13;;
11171;SDS011;5642;50.830;12.082;2023-09-07T06:22:39;2.83;;;2.40;;
11171;SDS011;5642;50.830;12.082;2023-09-07T06:25:06;2.50;;;2.30;;
11171;SDS011;5642;50.830;12.082;2023-09-07T06:27:32;4.25;;;3.00;;
11171;SDS011;5642;50.830;12.082;2023-09-07T06:29:58;3.53;;;3.22;;
11171;SDS011;5642;50.830;12.082;2023-09-07T06:32:24;4.18;;;3.63;;
11171;SDS011;5642;50.830;12.082;2023-09-07T06:34:54;4.28;;;3.28;;
11171;SDS011;5642;50.830;12.082;2023-09-07T06:37:21;2.90;;;2.70;;
11171;SDS011;5642;50.830;12.082;2023-09-07T06:39:55;4.57;;;3.00;;
11171;SDS011;5642;50.830;12.082;2023-09-07T06:42:24;3.72;;;2.80;;
11171;SDS011;5642;50.830;12.082;2023-09-07T06:44:50;2.65;;;2.40;;
11171;SDS011;5642;50.830;12.082;2023-09-07T06:47:18;3.00;;;2.80;;
11171;SDS011;5642;50.830;12.082;2023-09-07T06:49:45;2.63;;;2.25;;
11171;SDS011;5642;50.830;12.082;2023-09-07T06:52:11;3.53;;;2.20;;
11171;SDS011;5642;50.830;12.082;2023-09-07T06:54:38;2.15;;;1.92;;
11171;SDS011;5642;50.830;12.082;2023-09-07T06:57:12;1.88;;;1.77;;
11171;SDS011;5642;50.830;12.082;2023-09-07T07:00:08;1.75;;;1.65;;
11171;SDS011;5642;50.830;12.082;2023-09-07T07:02:35;1.80;;;1.70;;
11171;SDS011;5642;50.830;12.082;2023-09-07T07:05:02;1.90;;;1.80;;
11171;SDS011;5642;50.830;12.082;2023-09-07T07:07:30;1.65;;;1.55;;
11171;SDS011;5642;50.830;12.082;2023-09-07T07:09:57;1.95;;;1.70;;
11171;SDS011;5642;50.830;12.082;2023-09-07T07:12:24;1.80;;;1.70;;
11171;SDS011;5642;50.830;12.082;2023-09-07T07:14:52;1.65;;;1.55;;
11171;SDS011;5642;50.830;12.082;2023-09-07T07:17:20;1.38;;;1.30;;
11171;SDS011;5642;50.830;12.082;2023-09-07T07:19:46;1.45;;;1.35;;
11171;SDS011;5642;50.830;12.082;2023-09-07T07:22:12;1.40;;;1.30;;
11171;SDS011;5642;50.830;12.082;2023-09-07T07:24:48;1.42;;;1.33;;
11171;SDS011;5642;50.830;12.082;2023-09-07T07:27:14;1.45;;;1.35;;
11171;SDS011;5642;50.830;12.082;2023-09-07T07:29:41;2.55;;;1.60;;
11171;SDS011;5642;50.830;12.082;2023-09-07T07:32:19;1.35;;;1.30;;
11171;SDS011;5642;50.830;12.082;2023-09-07T07:34:45;1.90;;;1.80;;
11171;SDS011;5642;50.830;12.082;2023-09-07T07:37:12;1.58;;;1.48;;
11171;SDS011;5642;50.830;12.082;2023-09-07T07:39:40;1.60;;;1.50;;
11171;SDS011;5642;50.830;12.082;2023-09-07T07:42:08;2.75;;;1.45;;
11171;SDS011;5642;50.830;12.082;2023-09-07T07:44:35;1.42;;;1.33;;
11171;SDS011;5642;50.830;12.082;2023-09-07T07:47:01;1.65;;;1.52;;
11171;SDS011;5642;50.830;12.082;2023-09-07T07:49:30;1.50;;;1.40;;
11171;SDS011;5642;50.830;12.082;2023-09-07T07:52:01;1.63;;;1.52;;
11171;SDS011;5642;50.830;12.082;2023-09-07T07:54:27;1.50;;;1.40;;
11171;SDS011;5642;50.830;12.082;2023-09-07T07:56:55;1.48;;;1.38;;
11171;SDS011;5642;50.830;12.082;2023-09-07T07:59:25;1.30;;;1.30;;
11171;SDS011;5642;50.830;12.082;2023-09-07T08:01:54;1.50;;;1.40;;
11171;SDS011;5642;50.830;12.082;2023-09-07T08:04:22;1.60;;;1.50;;
11171;SDS011;5642;50.830;12.082;2023-09-07T08:06:51;1.48;;;1.38;;
11171;SDS011;5642;50.830;12.082;2023-09-07T08:09:22;1.20;;;1.20;;
11171;SDS011;5642;50.830;12.082;2023-09-07T08:11:49;1.30;;;1.30;;
11171;SDS011;5642;50.830;12.082;2023-09-07T08:14:19;1.30;;;1.30;;
11171;SDS011;5642;50.830;12.082;2023-09-07T08:16:47;1.42;;;1.40;;
11171;SDS011;5642;50.830;12.082;2023-09-07T08:19:17;1.58;;;1.50;;
11171;SDS011;5642;50.830;12.082;2023-09-07T08:21:44;1.20;;;1.20;;
11171;SDS011;5642;50.830;12.082;2023-09-07T08:24:15;1.50;;;1.40;;
11171;SDS011;5642;50.830;12.082;2023-09-07T08:26:51;1.35;;;1.25;;
11171;SDS011;5642;50.830;12.082;2023-09-07T08:29:21;1.40;;;1.30;;
11171;SDS011;5642;50.830;12.082;2023-09-07T08:31:51;1.33;;;1.33;;
11171;SDS011;5642;50.830;12.082;2023-09-07T08:34:17;1.48;;;1.38;;
11171;SDS011;5642;50.830;12.082;2023-09-07T08:36:47;1.33;;;1.25;;
11171;SDS011;5642;50.830;12.082;2023-09-07T08:39:16;1.10;;;1.10;;
11171;SDS011;5642;50.830;12.082;2023-09-07T08:41:43;1.50;;;1.40;;
11171;SDS011;5642;50.830;12.082;2023-09-07T08:44:16;1.40;;;1.30;;
11171;SDS011;5642;50.830;12.082;2023-09-07T08:46:45;1.50;;;1.40;;
11171;SDS011;5642;50.830;12.082;2023-09-07T08:49:16;1.20;;;1.20;;
11171;SDS011;5642;50.830;12.082;2023-09-07T08:51:46;1.48;;;1.38;;
11171;SDS011;5642;50.830;12.082;2023-09-07T08:54:13;1.50;;;1.40;;
11171;SDS011;5642;50.830;12.082;2023-09-07T08:56:40;1.20;;;1.20;;
11171;SDS011;5642;50.830;12.082;2023-09-07T08:59:10;1.17;;;1.17;;
11171;SDS011;5642;50.830;12.082;2023-09-07T09:01:36;1.50;;;1.40;;
11171;SDS011;5642;50.830;12.082;2023-09-07T09:04:03;1.23;;;1.23;;
11171;SDS011;5642;50.830;12.082;2023-09-07T09:06:29;1.63;;;1.52;;
11171;SDS011;5642;50.830;12.082;2023-09-07T09:08:56;1.30;;;1.30;;
11171;SDS011;5642;50.830;12.082;2023-09-07T09:11:23;1.60;;;1.50;;
11171;SDS011;5642;50.830;12.082;2023-09-07T09:13:51;1.50;;;1.40;;
11171;SDS011;5642;50.830;12.082;2023-09-07T09:16:19;1.48;;;1.38;;
11171;SDS011;5642;50.830;12.082;2023-09-07T09:18:56;1.58;;;1.48;;
11171;SDS011;5642;50.830;12.082;2023-09-07T09:21:25;1.50;;;1.40;;
11171;SDS011;5642;50.830;12.082;2023-09-07T09:23:55;1.30;;;1.20;;
11171;SDS011;5642;50.830;12.082;2023-09-07T09:26:23;1.80;;;1.30;;
11171;SDS011;5642;50.830;12.082;2023-09-07T09:28:49;1.30;;;1.20;;
11171;SDS011;5642;50.830;12.082;2023-09-07T09:31:19;1.65;;;1.50;;
11171;SDS011;5642;50.830;12.082;2023-09-07T09:33:49;1.63;;;1.52;;
11171;SDS011;5642;50.830;12.082;2023-09-07T09:36:18;1.50;;;1.40;;
11171;SDS011;5642;50.830;12.082;2023-09-07T09:38:47;1.20;;;1.20;;
11171;SDS011;5642;50.830;12.082;2023-09-07T09:41:16;2.15;;;1.48;;
11171;SDS011;5642;50.830;12.082;2023-09-07T09:43:45;1.65;;;1.55;;
11171;SDS011;5642;50.830;12.082;2023-09-07T09:46:32;1.60;;;1.50;;
11171;SDS011;5642;50.830;12.082;2023-09-07T09:49:07;1.40;;;1.38;;
11171;SDS011;5642;50.830;12.082;2023-09-07T09:51:54;1.38;;;1.38;;
11171;SDS011;5642;50.830;12.082;2023-09-07T09:54:40;1.20;;;1.20;;
11171;SDS011;5642;50.830;12.082;2023-09-07T09:57:08;1.20;;;1.20;;
11171;SDS011;5642;50.830;12.082;2023-09-07T09:59:34;1.27;;;1.27;;
11171;SDS011;5642;50.830;12.082;2023-09-07T10:02:00;1.35;;;1.35;;
11171;SDS011;5642;50.830;12.082;2023-09-07T10:04:29;1.30;;;1.30;;
11171;SDS011;5642;50.830;12.082;2023-09-07T10:06:56;1.55;;;1.50;;
11171;SDS011;5642;50.830;12.082;2023-09-07T10:09:30;1.50;;;1.45;;
11171;SDS011;5642;50.830;12.082;2023-09-07T10:11:58;1.60;;;1.50;;
11171;SDS011;5642;50.830;12.082;2023-09-07T10:14:41;1.55;;;1.45;;
11171;SDS011;5642;50.830;12.082;2023-09-07T10:17:20;1.30;;;1.30;;
11171;SDS011;5642;50.830;12.082;2023-09-07T10:19:47;1.50;;;1.50;;
11171;SDS011;5642;50.830;12.082;2023-09-07T10:22:21;1.33;;;1.33;;
11171;SDS011;5642;50.830;12.082;2023-09-07T10:24:56;1.55;;;1.52;;
11171;SDS011;5642;50.830;12.082;2023-09-07T10:27:23;1.63;;;1.52;;
11171;SDS011;5642;50.830;12.082;2023-09-07T10:29:50;1.40;;;1.40;;
11171;SDS011;5642;50.830;12.082;2023-09-07T10:32:19;1.50;;;1.40;;
11171;SDS011;5642;50.830;12.082;2023-09-07T10:34:46;1.45;;;1.35;;
11171;SDS011;5642;50.830;12.082;2023-09-07T10:37:12;1.13;;;1.13;;
11171;SDS011;5642;50.830;12.082;2023-09-07T10:39:40;1.33;;;1.23;;
11171;SDS011;5642;50.830;12.082;2023-09-07T10:42:25;1.30;;;1.25;;
11171;SDS011;5642;50.830;12.082;2023-09-07T10:45:08;1.10;;;1.10;;
11171;SDS011;5642;50.830;12.082;2023-09-07T10:47:49;1.30;;;1.30;;
11171;SDS011;5642;50.830;12.082;2023-09-07T10:50:15;1.35;;;1.25;;
11171;SDS011;5642;50.830;12.082;2023-09-07T10:52:41;1.10;;;1.10;;
11171;SDS011;5642;50.830;12.082;2023-09-07T10:55:10;1.10;;;1.10;;
11171;SDS011;5642;50.830;12.082;2023-09-07T10:57:46;1.23;;;1.23;;
11171;SDS011;5642;50.830;12.082;2023-09-07T11:00:14;1.40;;;1.30;;
11171;SDS011;5642;50.830;12.082;2023-09-07T11:02:41;1.10;;;1.10;;
11171;SDS011;5642;50.830;12.082;2023-09-07T11:05:09;1.27;;;1.27;;
11171;SDS011;5642;50.830;12.082;2023-09-07T11:07:36;1.38;;;1.27;;
11171;SDS011;5642;50.830;12.082;2023-09-07T11:10:07;1.23;;;1.23;;
11171;SDS011;5642;50.830;12.082;2023-09-07T11:12:37;1.23;;;1.23;;
11171;SDS011;5642;50.830;12.082;2023-09-07T11:15:05;1.25;;;1.15;;
11171;SDS011;5642;50.830;12.082;2023-09-07T11:17:37;1.23;;;1.20;;
11171;SDS011;5642;50.830;12.082;2023-09-07T11:20:13;1.20;;;1.20;;
11171;SDS011;5642;50.830;12.082;2023-09-07T11:22:43;1.33;;;1.23;;
11171;SDS011;5642;50.830;12.082;2023-09-07T11:25:12;1.35;;;1.35;;
11171;SDS011;5642;50.830;12.082;2023-09-07T11:27:39;1.40;;;1.30;;
11171;SDS011;5642;50.830;12.082;2023-09-07T11:30:05;1.30;;;1.30;;
11171;SDS011;5642;50.830;12.082;2023-09-07T11:32:34;1.40;;;1.30;;
11171;SDS011;5642;50.830;12.082;2023-09-07T11:35:02;1.10;;;1.10;;
11171;SDS011;5642;50.830;12.082;2023-09-07T11:37:33;1.20;;;1.15;;
11171;SDS011;5642;50.830;12.082;2023-09-07T11:40:01;1.30;;;1.20;;
11171;SDS011;5642;50.830;12.082;2023-09-07T11:42:32;1.38;;;1.38;;
11171;SDS011;5642;50.830;12.082;2023-09-07T11:44:58;1.38;;;1.30;;
11171;SDS011;5642;50.830;12.082;2023-09-07T11:47:25;1.35;;;1.25;;
11171;SDS011;5642;50.830;12.082;2023-09-07T11:49:52;1.40;;;1.30;;
11171;SDS011;5642;50.830;12.082;2023-09-07T11:52:18;1.30;;;1.20;;
11171;SDS011;5642;50.830;12.082;2023-09-07T11:54:45;1.60;;;1.50;;
11171;SDS011;5642;50.830;12.082;2023-09-07T11:57:13;1.40;;;1.30;;
11171;SDS011;5642;50.830;12.082;2023-09-07T11:59:41;1.50;;;1.40;;
11171;SDS011;5642;50.830;12.082;2023-09-07T12:02:08;1.55;;;1.45;;
11171;SDS011;5642;50.830;12.082;2023-09-07T12:04:38;2.60;;;1.30;;
11171;SDS011;5642;50.830;12.082;2023-09-07T12:07:07;1.23;;;1.15;;
11171;SDS011;5642;50.830;12.082;2023-09-07T12:09:37;1.20;;;1.20;;
11171;SDS011;5642;50.830;12.082;2023-09-07T12:12:05;1.45;;;1.35;;
11171;SDS011;5642;50.830;12.082;2023-09-07T12:14:31;1.23;;;1.23;;
11171;SDS011;5642;50.830;12.082;2023-09-07T12:17:03;3.35;;;1.23;;
11171;SDS011;5642;50.830;12.082;2023-09-07T12:19:29;1.40;;;1.30;;
11171;SDS011;5642;50.830;12.082;2023-09-07T12:21:55;1.42;;;1.33;;
11171;SDS011;5642;50.830;12.082;2023-09-07T12:24:22;1.40;;;1.30;;
11171;SDS011;5642;50.830;12.082;2023-09-07T12:26:54;1.50;;;1.40;;
11171;SDS011;5642;50.830;12.082;2023-09-07T12:29:20;1.58;;;1.30;;
11171;SDS011;5642;50.830;12.082;2023-09-07T12:31:46;1.33;;;1.30;;
11171;SDS011;5642;50.830;12.082;2023-09-07T12:34:12;1.30;;;1.20;;
11171;SDS011;5642;50.830;12.082;2023-09-07T12:36:42;1.48;;;1.38;;
11171;SDS011;5642;50.830;12.082;2023-09-07T12:39:08;1.27;;;1.23;;
11171;SDS011;5642;50.830;12.082;2023-09-07T12:41:38;1.33;;;1.23;;
11171;SDS011;5642;50.830;12.082;2023-09-07T12:44:04;1.30;;;1.20;;
11171;SDS011;5642;50.830;12.082;2023-09-07T12:46:39;2.03;;;1.33;;
11171;SDS011;5642;50.830;12.082;2023-09-07T12:49:06;1.70;;;1.60;;
11171;SDS011;5642;50.830;12.082;2023-09-07T12:51:35;1.60;;;1.50;;
11171;SDS011;5642;50.830;12.082;2023-09-07T12:54:02;1.20;;;1.20;;
11171;SDS011;5642;50.830;12.082;2023-09-07T12:56:29;1.20;;;1.20;;
11171;SDS011;5642;50.830;12.082;2023-09-07T12:58:59;1.50;;;1.40;;
11171;SDS011;5642;50.830;12.082;2023-09-07T13:01:27;1.42;;;1.33;;
11171;SDS011;5642;50.830;12.082;2023-09-07T13:04:00;1.33;;;1.23;;
11171;SDS011;5642;50.830;12.082;2023-09-07T13:06:39;1.65;;;1.10;;
11171;SDS011;5642;50.830;12.082;2023-09-07T13:09:09;1.50;;;1.40;;
11171;SDS011;5642;50.830;12.082;2023-09-07T13:11:43;1.30;;;1.20;;
11171;SDS011;5642;50.830;12.082;2023-09-07T13:14:17;1.42;;;1.33;;
11171;SDS011;5642;50.830;12.082;2023-09-07T13:16:44;1.20;;;1.20;;
11171;SDS011;5642;50.830;12.082;2023-09-07T13:19:10;1.30;;;1.20;;
11171;SDS011;5642;50.830;12.082;2023-09-07T13:21:36;1.40;;;1.30;;
11171;SDS011;5642;50.830;12.082;2023-09-07T13:24:05;1.45;;;1.35;;
11171;SDS011;5642;50.830;12.082;2023-09-07T13:26:50;1.50;;;1.40;;
11171;SDS011;5642;50.830;12.082;2023-09-07T13:29:25;1.23;;;1.15;;
11171;SDS011;5642;50.830;12.082;2023-09-07T13:32:38;1.40;;;1.30;;
11171;SDS011;5642;50.830;12.082;2023-09-07T13:42:49;1.30;;;1.20;;
11171;SDS011;5642;50.830;12.082;2023-09-07T13:46:14;1.30;;;1.20;;
11171;SDS011;5642;50.830;12.082;2023-09-07T13:48:55;1.33;;;1.23;;
11171;SDS011;5642;50.830;12.082;2023-09-07T13:51:39;1.38;;;1.27;;
11171;SDS011;5642;50.830;12.082;2023-09-07T13:54:35;1.13;;;1.10;;
11171;SDS011;5642;50.830;12.082;2023-09-07T13:57:23;1.52;;;1.40;;
11171;SDS011;5642;50.830;12.082;2023-09-07T14:00:41;1.48;;;1.30;;
11171;SDS011;5642;50.830;12.082;2023-09-07T14:03:34;1.33;;;1.23;;
11171;SDS011;5642;50.830;12.082;2023-09-07T14:06:37;1.45;;;1.35;;
11171;SDS011;5642;50.830;12.082;2023-09-07T14:09:41;1.20;;;1.20;;
11171;SDS011;5642;50.830;12.082;2023-09-07T14:12:19;2.90;;;1.10;;
11171;SDS011;5642;50.830;12.082;2023-09-07T14:14:46;1.10;;;1.10;;
11171;SDS011;5642;50.830;12.082;2023-09-07T14:17:12;1.30;;;1.20;;
11171;SDS011;5642;50.830;12.082;2023-09-07T14:19:38;1.33;;;1.23;;
11171;SDS011;5642;50.830;12.082;2023-09-07T14:22:04;1.40;;;1.30;;
11171;SDS011;5642;50.830;12.082;2023-09-07T14:24:31;1.10;;;1.10;;
11171;SDS011;5642;50.830;12.082;2023-09-07T14:26:57;1.10;;;1.10;;
11171;SDS011;5642;50.830;12.082;2023-09-07T14:29:25;1.30;;;1.20;;
11171;SDS011;5642;50.830;12.082;2023-09-07T14:31:58;1.30;;;1.20;;
11171;SDS011;5642;50.830;12.082;2023-09-07T14:34:27;1.20;;;1.20;;
11171;SDS011;5642;50.830;12.082;2023-09-07T14:36:53;1.20;;;1.10;;
11171;SDS011;5642;50.830;12.082;2023-09-07T14:39:21;1.27;;;1.17;;
11171;SDS011;5642;50.830;12.082;2023-09-07T14:41:50;1.48;;;1.38;;
11171;SDS011;5642;50.830;12.082;2023-09-07T14:44:19;1.25;;;1.15;;
11171;SDS011;5642;50.830;12.082;2023-09-07T14:46:54;1.33;;;1.23;;
11171;SDS011;5642;50.830;12.082;2023-09-07T14:49:21;1.35;;;1.25;;
11171;SDS011;5642;50.830;12.082;2023-09-07T14:51:48;1.30;;;1.20;;
11171;SDS011;5642;50.830;12.082;2023-09-07T14:54:14;1.10;;;1.10;;
11171;SDS011;5642;50.830;12.082;2023-09-07T14:56:48;1.40;;;1.30;;
11171;SDS011;5642;50.830;12.082;2023-09-07T14:59:14;1.33;;;1.23;;
11171;SDS011;5642;50.830;12.082;2023-09-07T15:01:41;1.27;;;1.17;;
11171;SDS011;5642;50.830;12.082;2023-09-07T15:04:07;1.35;;;1.25;;
11171;SDS011;5642;50.830;12.082;2023-09-07T15:06:51;1.17;;;1.17;;
11171;SDS011;5642;50.830;12.082;2023-09-07T15:09:18;1.08;;;1.08;;
11171;SDS011;5642;50.830;12.082;2023-09-07T15:11:44;1.15;;;1.15;;
11171;SDS011;5642;50.830;12.082;2023-09-07T15:14:13;1.48;;;1.38;;
11171;SDS011;5642;50.830;12.082;2023-09-07T15:16:58;1.30;;;1.20;;
11171;SDS011;5642;50.830;12.082;2023-09-07T15:19:24;1.40;;;1.30;;